ADDS METAR Data INFO
IDs: Format: Raw Decoded Include TAF

Data at: 0153 UTC 17 Oct 2017

KCAG 170053Z AUTO 21008KT 10SM CLR 08/M13 A3035 RMK AO2 SLP297 T00781133 $
KCAG 162353Z AUTO 25007KT 10SM CLR 16/M17 A3035 RMK AO2 SLP274 T01561167 10206 20156 56001 $
KCAG 162253Z AUTO 27010KT 10SM CLR 19/M20 A3035 RMK AO2 SLP263 T01941200 $
KCAG 162153Z AUTO 28014KT 10SM CLR 20/M21 A3035 RMK AO2 SLP260 T02001211 $
KCAG 162053Z AUTO 27009G20KT 10SM CLR 20/M20 A3036 RMK AO2 SLP262 T02001200 58023 $
KCAG 161953Z AUTO 29006KT 10SM CLR 19/M16 A3039 RMK AO2 SLP275 T01941161 $
KCAG 161853Z AUTO 00000KT 10SM CLR 18/M16 A3042 RMK AO2 SLP287 T01781156 $
KCAG 161753Z AUTO 34004KT 10SM CLR 16/M12 A3044 RMK AO2 SLP299 T01561122 10156 21072 58012 $
KCAG 161653Z AUTO 06007KT 10SM CLR 13/M09 A3046 RMK AO2 SLP309 T01281089 $
KCAG 161553Z AUTO 00000KT 10SM CLR 05/M04 A3048 RMK AO2 SLP337 T00501044
KCAG 161453Z AUTO 00000KT 10SM CLR 00/M06 A3048 RMK AO2 SLP348 T00001056 52003
KCAG 161353Z AUTO 00000KT 10SM CLR M06/M09 A3048 RMK AO2 SLP357 T10611089 $
KCAG 161253Z AUTO 00000KT 10SM CLR M06/M09 A3047 RMK AO2 SLP346 T10611089 $
KCAG 161153Z AUTO 00000KT 10SM CLR M06/M09 A3047 RMK AO2 SLP317 T10561089 11033 21061 55000 $
KCAG 161053Z AUTO 00000KT 8SM CLR M06/M09 A3047 RMK AO2 SLP313 T10561089 $
KCAG 160953Z AUTO 00000KT 8SM CLR M05/M08 A3046 RMK AO2 SLP312 T10501083 $
KCAG 160853Z AUTO 00000KT 10SM CLR M04/M08 A3047 RMK AO2 SLP314 T10441078 57003 $
KCAG 160753Z AUTO 24003KT 10SM CLR M05/M08 A3048 RMK AO2 SLP323 T10501083 $
KCAG 160653Z AUTO 00000KT 10SM CLR M04/M07 A3048 RMK AO2 SLP322 T10391072 401671094 $
KCAG 160553Z AUTO 00000KT 10SM CLR M04/M08 A3048 RMK AO2 SLP331 T10391078 10144 21039 58000 $
KCAG 160453Z AUTO 00000KT 10SM CLR M02/M07 A3049 RMK AO2 SLP337 T10171067 $
KCAG 160353Z AUTO 00000KT 10SM CLR M02/M07 A3049 RMK AO2 SLP352 T10171072 $
KCAG 160253Z AUTO 17003KT 10SM CLR M01/M07 A3049 RMK AO2 SLP359 T10061072 53012 $
KCAG 160153Z AUTO 00000KT 10SM CLR 03/M07 A3047 RMK AO2 SLP358 T00281072 $
KCAG 160053Z AUTO 00000KT 10SM CLR 06/M08 A3045 RMK AO2 SLP344 T00561083 $
KCAG 152353Z AUTO 00000KT 10SM CLR 15/M12 A3044 RMK AO2 SLP317 T01501122 10167 20100 56013 $
KCAG 152253Z AUTO 02005KT 10SM CLR 17/M14 A3045 RMK AO2 SLP313 T01671144 $
KCAG 152153Z AUTO 00000KT 10SM CLR 16/M15 A3047 RMK AO2 SLP322 T01561150 $
KCAG 152053Z AUTO VRB04KT 10SM CLR 15/M14 A3049 RMK AO2 SLP329 T01501139 57024 $
KCAG 151953Z AUTO VRB05KT 10SM CLR 13/M13 A3051 RMK AO2 SLP342 T01331128 $
KCAG 151853Z AUTO 03005KT 10SM CLR 12/M13 A3055 RMK AO2 SLP355 T01221128 $
KCAG 151753Z AUTO 06011KT 10SM CLR 10/M11 A3057 RMK AO2 SLP368 T01001111 10100 21094 58010 $
KCAG 151653Z AUTO 06008KT 10SM CLR 07/M12 A3059 RMK AO2 SLP378 T00721117 $
KCAG 151553Z AUTO VRB03KT CLR 02/M07 A3060 RMK AO2 SLP390 T00171067 $
KCAG 151453Z AUTO 00000KT 10SM CLR M03/M07 A3061 RMK AO2 SLP406 T10281067 51009 $